createdAt,value
2023-11-17T00:02:16.248Z,5.03
2023-11-17T00:05:02.912Z,4.98
2023-11-17T00:07:49.634Z,5.06
2023-11-17T00:10:35.939Z,4.93
2023-11-17T00:13:22.273Z,4.88
2023-11-17T00:16:09.531Z,4.93
2023-11-17T00:18:55.848Z,4.77
2023-11-17T00:21:42.374Z,4.92
2023-11-17T00:24:29.069Z,4.85
2023-11-17T00:27:16.026Z,4.98
2023-11-17T00:30:03.107Z,4.93
2023-11-17T00:32:50.204Z,4.84
2023-11-17T00:35:36.642Z,4.99
2023-11-17T00:38:23.016Z,4.80
2023-11-17T00:41:17.741Z,4.71
2023-11-17T00:44:11.389Z,4.88
2023-11-17T00:46:59.167Z,4.74
2023-11-17T00:49:45.832Z,4.78
2023-11-17T00:52:32.508Z,4.65
2023-11-17T00:55:19.354Z,4.68
2023-11-17T00:58:05.837Z,4.70
2023-11-17T01:00:53.076Z,4.87
2023-11-17T01:03:39.496Z,4.84
2023-11-17T01:06:26.556Z,4.85
2023-11-17T01:09:13.699Z,4.86
2023-11-17T01:12:00.520Z,4.94
2023-11-17T01:14:46.764Z,4.84
2023-11-17T01:17:33.615Z,4.96
2023-11-17T01:20:20.330Z,4.91
2023-11-17T01:23:07.025Z,4.94
2023-11-17T01:25:53.252Z,5.00
2023-11-17T01:28:39.769Z,4.97
2023-11-17T01:31:26.981Z,4.95
2023-11-17T01:34:14.291Z,4.89
2023-11-17T01:37:00.936Z,4.92
2023-11-17T01:39:47.614Z,5.04
2023-11-17T01:42:34.192Z,4.94
2023-11-17T01:45:22.405Z,4.91
2023-11-17T01:48:09.067Z,4.96
2023-11-17T01:50:57.319Z,4.98
2023-11-17T01:53:43.882Z,5.00
2023-11-17T01:56:31.637Z,5.02
2023-11-17T01:59:17.915Z,5.05
2023-11-17T02:02:05.750Z,4.85
2023-11-17T02:04:52.440Z,4.94
2023-11-17T02:07:54.765Z,5.06
2023-11-17T02:10:55.920Z,5.11
2023-11-17T02:13:58.051Z,5.14
2023-11-17T02:16:45.586Z,5.24
2023-11-17T02:19:38.740Z,5.20
2023-11-17T02:22:31.508Z,5.14
2023-11-17T02:25:29.752Z,5.17
2023-11-17T02:28:35.640Z,5.17
2023-11-17T02:31:27.356Z,5.31
2023-11-17T02:34:16.250Z,5.19
2023-11-17T02:37:06.908Z,5.29
2023-11-17T02:39:56.253Z,5.29
2023-11-17T02:42:43.559Z,5.28
2023-11-17T02:45:32.536Z,5.15
2023-11-17T02:48:29.529Z,5.17
2023-11-17T02:51:20.673Z,5.34
2023-11-17T02:54:09.822Z,5.33
2023-11-17T02:56:57.485Z,5.27
2023-11-17T02:59:45.039Z,5.35
2023-11-17T03:02:31.823Z,5.40
2023-11-17T03:05:18.535Z,5.45
2023-11-17T03:08:05.065Z,5.36
2023-11-17T03:10:51.408Z,5.37
2023-11-17T03:13:38.054Z,5.22
2023-11-17T03:16:27.236Z,5.25
2023-11-17T03:19:14.596Z,5.21
2023-11-17T03:22:01.133Z,5.26
2023-11-17T03:24:47.459Z,5.20
2023-11-17T03:27:34.797Z,5.22
2023-11-17T03:30:21.216Z,5.22
2023-11-17T03:33:07.610Z,5.21
2023-11-17T03:35:57.051Z,5.31
2023-11-17T03:38:43.639Z,5.25
2023-11-17T03:41:30.266Z,5.26
2023-11-17T03:44:16.903Z,5.18
2023-11-17T03:47:08.166Z,5.18
2023-11-17T03:49:54.705Z,5.18
2023-11-17T03:52:42.222Z,5.19
2023-11-17T03:55:28.858Z,5.27
2023-11-17T03:58:16.708Z,5.02
2023-11-17T04:01:03.173Z,5.27
2023-11-17T04:03:50.249Z,5.11
2023-11-17T04:06:36.740Z,5.27
2023-11-17T04:09:26.082Z,5.26
2023-11-17T04:12:12.318Z,5.23
2023-11-17T04:14:59.065Z,5.22
2023-11-17T04:17:45.549Z,5.13
2023-11-17T04:20:32.853Z,5.08
2023-11-17T04:23:19.363Z,5.09
2023-11-17T04:26:06.915Z,5.22
2023-11-17T04:28:53.415Z,5.24
2023-11-17T04:31:39.786Z,5.36
2023-11-17T04:34:27.481Z,5.21
2023-11-17T04:37:14.104Z,5.20
2023-11-17T04:40:02.872Z,5.18
2023-11-17T04:42:49.352Z,5.09
2023-11-17T04:45:37.523Z,5.25
2023-11-17T04:48:24.383Z,5.20
2023-11-17T04:51:11.106Z,5.14
2023-11-17T04:53:57.457Z,5.08
2023-11-17T04:56:43.885Z,5.02
2023-11-17T04:59:30.480Z,5.08
2023-11-17T05:02:17.115Z,5.04
2023-11-17T05:05:05.398Z,5.05
2023-11-17T05:07:52.077Z,4.99
2023-11-17T05:10:38.545Z,5.01
2023-11-17T05:13:26.463Z,5.03
2023-11-17T05:16:15.279Z,5.11
2023-11-17T05:19:05.140Z,5.02
2023-11-17T05:21:51.682Z,4.87
2023-11-17T05:24:37.805Z,4.98
2023-11-17T05:27:24.503Z,5.01
2023-11-17T05:30:11.494Z,4.81
2023-11-17T05:32:58.180Z,4.99
2023-11-17T05:35:44.980Z,4.91
2023-11-17T05:38:31.466Z,4.91
2023-11-17T05:41:18.695Z,5.03
2023-11-17T05:44:05.868Z,5.03
2023-11-17T05:46:52.677Z,4.97
2023-11-17T05:49:44.223Z,5.08
2023-11-17T05:52:30.605Z,5.09
2023-11-17T05:55:18.777Z,5.17
2023-11-17T05:58:05.596Z,5.13
2023-11-17T06:00:52.219Z,5.30
2023-11-17T06:03:38.806Z,5.33
2023-11-17T06:06:25.135Z,5.36
2023-11-17T06:09:14.659Z,5.28
2023-11-17T06:12:01.322Z,5.31
2023-11-17T06:14:47.807Z,5.29
2023-11-17T06:17:36.444Z,5.38
2023-11-17T06:20:24.357Z,5.43
2023-11-17T06:23:10.694Z,5.33
2023-11-17T06:25:58.190Z,5.46
2023-11-17T06:28:44.582Z,5.43
2023-11-17T06:31:31.024Z,5.51
2023-11-17T06:34:17.794Z,5.42
2023-11-17T06:37:04.765Z,5.51
2023-11-17T06:39:52.156Z,5.50
2023-11-17T06:42:41.046Z,5.44
2023-11-17T06:45:28.383Z,5.45
2023-11-17T06:48:14.763Z,5.61
2023-11-17T06:51:01.152Z,5.54
2023-11-17T06:53:47.805Z,5.54
2023-11-17T06:56:34.246Z,5.57
2023-11-17T06:59:21.384Z,5.58
2023-11-17T07:02:10.050Z,5.56
2023-11-17T07:04:56.774Z,5.50
2023-11-17T07:07:43.048Z,5.40
2023-11-17T07:10:30.434Z,5.54
2023-11-17T07:13:17.088Z,5.61
2023-11-17T07:16:08.025Z,5.53
2023-11-17T07:18:54.763Z,5.50
2023-11-17T07:21:41.074Z,5.52
2023-11-17T07:24:27.288Z,5.66
2023-11-17T07:27:13.627Z,5.76
2023-11-17T07:30:00.373Z,5.79
2023-11-17T07:32:47.067Z,5.80
2023-11-17T07:35:33.426Z,5.81
2023-11-17T07:38:20.395Z,5.76
2023-11-17T07:41:06.913Z,5.81
2023-11-17T07:43:53.230Z,5.77
2023-11-17T07:46:40.077Z,5.83
2023-11-17T07:49:26.987Z,5.90
2023-11-17T07:52:13.785Z,5.93
2023-11-17T07:55:01.796Z,6.06
2023-11-17T07:57:48.343Z,5.95
2023-11-17T08:00:35.772Z,5.89
2023-11-17T08:03:23.939Z,5.97
2023-11-17T08:06:12.450Z,6.03
2023-11-17T08:09:03.191Z,5.51
2023-11-17T08:11:52.274Z,5.45
2023-11-17T08:14:40.149Z,4.38
2023-11-17T08:17:33.118Z,6.02
2023-11-17T08:20:22.853Z,6.23
2023-11-17T08:23:12.480Z,5.66
2023-11-17T08:25:59.888Z,6.11
2023-11-17T08:28:46.794Z,6.17
2023-11-17T08:31:34.306Z,6.17
2023-11-17T08:34:22.722Z,6.16
2023-11-17T08:37:09.896Z,6.23
2023-11-17T08:39:56.516Z,6.26
2023-11-17T08:42:43.148Z,6.20
2023-11-17T08:45:30.264Z,6.09
2023-11-17T08:48:16.806Z,6.24
2023-11-17T08:51:04.197Z,6.20
2023-11-17T08:53:51.806Z,6.31
2023-11-17T08:56:38.065Z,6.35
2023-11-17T08:59:25.441Z,6.46
2023-11-17T09:02:11.897Z,6.36
2023-11-17T09:04:58.793Z,6.52
2023-11-17T09:07:50.918Z,6.55
2023-11-17T09:10:38.972Z,6.58
2023-11-17T09:13:26.297Z,6.55
2023-11-17T09:16:13.046Z,6.54
2023-11-17T09:19:00.458Z,6.43
2023-11-17T09:21:48.171Z,6.32
2023-11-17T09:24:34.989Z,6.42
2023-11-17T09:27:21.661Z,6.54
2023-11-17T09:30:09.720Z,6.64
2023-11-17T09:32:58.272Z,6.62
2023-11-17T09:35:45.222Z,6.58
2023-11-17T09:38:36.961Z,6.66
2023-11-17T09:41:25.476Z,6.37
2023-11-17T09:44:14.994Z,6.64
2023-11-17T09:47:19.939Z,6.63
2023-11-17T09:50:10.634Z,6.63
2023-11-17T09:52:59.132Z,6.68
2023-11-17T09:55:49.534Z,6.57
2023-11-17T09:58:37.772Z,6.77
2023-11-17T10:01:29.099Z,6.65
2023-11-17T10:04:16.941Z,6.74
2023-11-17T10:07:06.549Z,6.69
2023-11-17T10:09:57.354Z,6.66
2023-11-17T10:12:48.554Z,6.84
2023-11-17T10:15:39.026Z,6.64
2023-11-17T10:18:27.788Z,6.71
2023-11-17T10:21:17.042Z,6.72
2023-11-17T10:24:03.360Z,6.73
2023-11-17T10:26:50.182Z,6.63
2023-11-17T10:29:37.993Z,6.64
2023-11-17T10:32:42.081Z,6.77
2023-11-17T10:35:34.905Z,6.81
2023-11-17T10:38:21.729Z,6.84
2023-11-17T10:41:21.622Z,6.86
2023-11-17T10:44:09.916Z,6.85
2023-11-17T10:46:56.340Z,6.74
2023-11-17T10:49:43.268Z,6.85
2023-11-17T10:52:29.543Z,6.98
2023-11-17T10:55:17.129Z,6.97
2023-11-17T10:58:05.096Z,7.02
2023-11-17T11:00:52.196Z,7.05
2023-11-17T11:03:39.321Z,7.21
2023-11-17T11:06:27.138Z,7.19
2023-11-17T11:09:19.960Z,7.37
2023-11-17T11:12:14.710Z,7.58
2023-11-17T11:15:01.512Z,7.57
2023-11-17T11:17:56.879Z,7.49
2023-11-17T11:20:46.848Z,7.61
2023-11-17T11:23:34.195Z,7.49
2023-11-17T11:26:20.691Z,7.65
2023-11-17T11:29:09.167Z,7.45
2023-11-17T11:31:56.899Z,7.54
2023-11-17T11:34:44.819Z,7.35
2023-11-17T11:37:35.005Z,7.56
2023-11-17T11:40:21.951Z,7.56
2023-11-17T11:43:09.035Z,7.68
2023-11-17T11:45:57.705Z,7.69
2023-11-17T11:48:48.732Z,7.64
2023-11-17T11:51:45.219Z,7.58
2023-11-17T11:54:32.315Z,7.76
2023-11-17T11:57:37.113Z,7.82
2023-11-17T12:00:25.868Z,7.84
2023-11-17T12:03:14.815Z,7.73
2023-11-17T12:06:01.317Z,7.81
2023-11-17T12:09:01.065Z,7.77
2023-11-17T12:11:51.905Z,7.87
2023-11-17T12:14:40.799Z,7.91
2023-11-17T12:17:32.893Z,7.87
2023-11-17T12:20:30.891Z,8.10
2023-11-17T12:23:19.347Z,7.98
2023-11-17T12:26:06.752Z,8.05
2023-11-17T12:28:55.558Z,8.10
2023-11-17T12:31:42.526Z,8.08
2023-11-17T12:34:30.018Z,8.14
2023-11-17T12:37:16.744Z,8.15
2023-11-17T12:40:15.459Z,8.08
2023-11-17T12:43:02.482Z,7.94
2023-11-17T12:45:49.861Z,7.82
2023-11-17T12:48:40.277Z,7.86
2023-11-17T12:51:31.730Z,7.97
2023-11-17T12:54:18.672Z,7.93
2023-11-17T12:57:06.294Z,7.92
2023-11-17T12:59:56.888Z,7.84
2023-11-17T13:02:44.371Z,7.76
2023-11-17T13:05:30.673Z,7.52
2023-11-17T13:08:17.049Z,7.41
2023-11-17T13:11:04.291Z,7.45
2023-11-17T13:13:52.963Z,7.29
2023-11-17T13:16:42.737Z,7.25
2023-11-17T13:19:30.418Z,7.34
2023-11-17T13:22:17.732Z,7.41
2023-11-17T13:25:05.200Z,7.53
2023-11-17T13:27:52.039Z,7.41
2023-11-17T13:30:39.104Z,7.36
2023-11-17T13:33:38.857Z,7.26
2023-11-17T13:36:27.463Z,7.19
2023-11-17T13:39:14.123Z,7.11
2023-11-17T13:42:02.820Z,7.05
2023-11-17T13:44:49.573Z,6.82
2023-11-17T13:47:38.857Z,6.87
2023-11-17T13:50:27.935Z,6.91
2023-11-17T13:53:18.214Z,6.91
2023-11-17T13:56:05.521Z,6.95
2023-11-17T13:58:52.552Z,7.09
2023-11-17T14:01:39.113Z,7.20
2023-11-17T14:04:32.262Z,7.32
2023-11-17T14:07:18.760Z,7.45
2023-11-17T14:10:09.518Z,7.48
2023-11-17T14:12:56.142Z,7.40
2023-11-17T14:15:48.428Z,7.50
2023-11-17T14:18:42.626Z,7.37
2023-11-17T14:21:29.157Z,7.36
2023-11-17T14:24:17.608Z,7.47
2023-11-17T14:27:04.680Z,7.47
2023-11-17T14:29:54.102Z,7.57
2023-11-17T14:32:40.669Z,7.53
2023-11-17T14:35:27.395Z,7.33
2023-11-17T14:38:15.167Z,7.52
2023-11-17T14:41:01.847Z,7.37
2023-11-17T14:43:50.681Z,7.29
2023-11-17T14:46:37.567Z,7.22
2023-11-17T14:49:24.736Z,7.09
2023-11-17T14:52:11.591Z,7.06
2023-11-17T14:54:58.253Z,7.00
2023-11-17T14:57:44.728Z,6.99
2023-11-17T15:00:38.938Z,7.11
2023-11-17T15:03:25.273Z,7.02
2023-11-17T15:06:19.465Z,7.00
2023-11-17T15:09:10.244Z,6.89
2023-11-17T15:11:56.823Z,6.85
2023-11-17T15:14:43.129Z,6.83
2023-11-17T15:17:29.682Z,6.88
2023-11-17T15:20:18.901Z,6.80
2023-11-17T15:23:07.076Z,6.58
2023-11-17T15:25:53.748Z,6.49
2023-11-17T15:28:40.412Z,6.51
2023-11-17T15:31:31.333Z,6.53
2023-11-17T15:34:18.105Z,6.33
2023-11-17T15:37:10.145Z,6.35
2023-11-17T15:39:57.116Z,6.21
2023-11-17T15:42:45.044Z,6.02
2023-11-17T15:45:32.605Z,5.90
2023-11-17T15:48:20.055Z,5.81
2023-11-17T15:51:07.117Z,5.68
2023-11-17T15:53:54.743Z,5.62
2023-11-17T15:56:42.579Z,5.68
2023-11-17T15:59:29.281Z,5.56
2023-11-17T16:02:17.461Z,5.39
2023-11-17T16:05:06.721Z,5.30
2023-11-17T16:07:53.795Z,5.10
2023-11-17T16:10:40.367Z,4.91
2023-11-17T16:13:26.721Z,4.77
2023-11-17T16:16:15.277Z,4.69
2023-11-17T16:19:03.880Z,4.57
2023-11-17T16:21:50.474Z,4.41
2023-11-17T16:24:40.680Z,4.43
2023-11-17T16:27:27.359Z,4.57
2023-11-17T16:30:14.647Z,4.55
2023-11-17T16:33:01.776Z,4.52
2023-11-17T16:35:49.073Z,4.60
2023-11-17T16:38:36.444Z,4.68
2023-11-17T16:41:23.429Z,4.48
2023-11-17T16:44:09.758Z,4.24
2023-11-17T16:46:56.529Z,4.25
2023-11-17T16:49:43.195Z,3.96
2023-11-17T16:52:29.691Z,4.07
2023-11-17T16:55:17.553Z,4.11
2023-11-17T16:58:05.993Z,4.00
2023-11-17T17:00:56.205Z,3.94
2023-11-17T17:03:43.129Z,3.96
2023-11-17T17:06:31.087Z,3.93
2023-11-17T17:09:18.005Z,4.18
2023-11-17T17:12:04.977Z,4.20
2023-11-17T17:14:51.797Z,4.36
2023-11-17T17:17:38.621Z,4.44
2023-11-17T17:20:27.091Z,4.41
2023-11-17T17:23:14.052Z,4.57
2023-11-17T17:26:00.913Z,4.71
2023-11-17T17:28:47.732Z,4.77
2023-11-17T17:31:34.500Z,4.77
2023-11-17T17:34:21.685Z,4.80
2023-11-17T17:37:07.897Z,4.91
2023-11-17T17:39:54.866Z,4.96
2023-11-17T17:42:42.365Z,5.06
2023-11-17T17:45:29.067Z,5.16
2023-11-17T17:48:15.552Z,5.09
2023-11-17T17:51:02.129Z,5.03
2023-11-17T17:53:48.791Z,4.93
2023-11-17T17:56:36.143Z,4.93
2023-11-17T17:59:22.641Z,4.81
2023-11-17T18:02:10.647Z,4.70
2023-11-17T18:04:57.840Z,4.71
2023-11-17T18:07:45.246Z,4.62
2023-11-17T18:10:32.990Z,4.49
2023-11-17T18:13:19.708Z,4.47
2023-11-17T18:16:06.771Z,4.35
2023-11-17T18:18:53.411Z,4.35
2023-11-17T18:21:40.190Z,4.21
2023-11-17T18:24:27.291Z,4.16
2023-11-17T18:27:14.045Z,4.13
2023-11-17T18:30:00.403Z,4.04
2023-11-17T18:32:47.363Z,4.09
2023-11-17T18:35:34.300Z,4.07
2023-11-17T18:38:21.061Z,4.25
2023-11-17T18:41:09.378Z,3.27
2023-11-17T18:43:56.842Z,4.20
2023-11-17T18:46:43.337Z,4.27
2023-11-17T18:49:30.607Z,4.29
2023-11-17T18:52:17.218Z,4.21
2023-11-17T18:55:03.837Z,4.09
2023-11-17T18:57:53.524Z,4.13
2023-11-17T19:00:41.816Z,4.04
2023-11-17T19:03:28.076Z,4.02
2023-11-17T19:06:14.840Z,3.97
2023-11-17T19:09:04.923Z,3.97
2023-11-17T19:11:52.036Z,3.88
2023-11-17T19:14:42.059Z,3.94
2023-11-17T19:17:29.506Z,4.11
2023-11-17T19:20:16.576Z,4.18
2023-11-17T19:23:03.069Z,4.08
2023-11-17T19:25:49.803Z,4.18
2023-11-17T19:28:36.356Z,4.26
2023-11-17T19:31:22.897Z,4.30
2023-11-17T19:34:09.542Z,4.25
2023-11-17T19:36:55.721Z,4.38
2023-11-17T19:39:42.237Z,4.51
2023-11-17T19:42:28.908Z,4.60
2023-11-17T19:45:17.892Z,4.65
2023-11-17T19:48:05.254Z,4.76
2023-11-17T19:50:51.792Z,4.67
2023-11-17T19:53:37.998Z,4.52
2023-11-17T19:56:24.396Z,4.50
2023-11-17T19:59:12.086Z,4.40
2023-11-17T20:01:58.533Z,4.29
2023-11-17T20:04:45.028Z,4.40
2023-11-17T20:07:31.641Z,4.32
2023-11-17T20:10:18.619Z,4.53
2023-11-17T20:13:06.941Z,4.45
2023-11-17T20:15:53.242Z,4.59
2023-11-17T20:18:39.537Z,4.66
2023-11-17T20:21:25.769Z,4.56
2023-11-17T20:24:13.082Z,4.63
2023-11-17T20:27:00.297Z,4.64
2023-11-17T20:29:48.548Z,4.57
2023-11-17T20:32:35.029Z,4.62
2023-11-17T20:35:25.197Z,4.57
2023-11-17T20:38:12.716Z,4.71
2023-11-17T20:40:59.436Z,4.75
2023-11-17T20:43:46.660Z,4.81
2023-11-17T20:46:33.930Z,4.79
2023-11-17T20:49:20.253Z,4.85
2023-11-17T20:52:07.025Z,5.11
2023-11-17T20:54:58.763Z,5.16
2023-11-17T20:57:45.374Z,5.22
2023-11-17T21:00:34.890Z,5.27
2023-11-17T21:03:21.424Z,5.37
2023-11-17T21:06:08.023Z,5.42
2023-11-17T21:08:54.384Z,5.44
2023-11-17T21:11:47.067Z,5.31
2023-11-17T21:14:37.445Z,5.61
2023-11-17T21:17:23.887Z,5.58
2023-11-17T21:20:11.829Z,5.62
2023-11-17T21:23:01.125Z,5.62
2023-11-17T21:25:49.309Z,5.62
2023-11-17T21:28:36.639Z,5.69
2023-11-17T21:31:24.008Z,5.62
2023-11-17T21:34:10.424Z,5.67
2023-11-17T21:36:57.066Z,5.88
2023-11-17T21:39:45.796Z,5.84
2023-11-17T21:42:35.073Z,5.76
2023-11-17T21:45:23.633Z,5.86
2023-11-17T21:48:10.566Z,5.78
2023-11-17T21:50:57.864Z,5.58
2023-11-17T21:53:46.834Z,5.62
2023-11-17T21:56:33.664Z,5.77
2023-11-17T21:59:23.817Z,5.81
2023-11-17T22:02:12.205Z,5.73
2023-11-17T22:04:58.931Z,5.57
2023-11-17T22:07:46.472Z,5.72
2023-11-17T22:10:34.444Z,5.64
2023-11-17T22:13:22.349Z,5.74
2023-11-17T22:16:09.252Z,5.69
2023-11-17T22:18:55.478Z,6.07
2023-11-17T22:21:42.119Z,6.01
2023-11-17T22:24:29.653Z,5.95
2023-11-17T22:27:15.951Z,6.04
2023-11-17T22:30:02.287Z,6.08
2023-11-17T22:32:49.649Z,5.99
2023-11-17T22:35:36.007Z,5.89
2023-11-17T22:38:26.245Z,5.82
2023-11-17T22:41:13.064Z,5.88
2023-11-17T22:43:59.438Z,5.89
2023-11-17T22:46:48.997Z,5.86
2023-11-17T22:49:37.560Z,5.89
2023-11-17T22:52:24.004Z,5.82
2023-11-17T22:55:10.724Z,5.73
2023-11-17T22:57:58.367Z,5.89
2023-11-17T23:00:49.344Z,5.81
2023-11-17T23:03:36.571Z,5.63
2023-11-17T23:06:24.406Z,5.50
2023-11-17T23:09:11.341Z,5.75
2023-11-17T23:11:57.622Z,5.69
2023-11-17T23:14:44.551Z,5.53
2023-11-17T23:17:31.030Z,5.48
2023-11-17T23:20:18.332Z,5.40
2023-11-17T23:23:04.784Z,5.36
2023-11-17T23:25:51.222Z,5.31
2023-11-17T23:28:37.800Z,5.32
2023-11-17T23:31:24.461Z,5.25
2023-11-17T23:34:11.494Z,5.21
2023-11-17T23:36:59.457Z,5.16
2023-11-17T23:39:46.193Z,5.36
2023-11-17T23:42:32.824Z,5.33
2023-11-17T23:45:19.160Z,5.12
2023-11-17T23:48:06.603Z,4.93
2023-11-17T23:50:53.161Z,4.81
2023-11-17T23:53:41.648Z,4.74
2023-11-17T23:56:29.768Z,4.62
2023-11-17T23:59:16.448Z,4.52
